createdAt,value
2022-08-18T00:00:22.949Z,19.70
2022-08-18T00:01:25.507Z,19.70
2022-08-18T00:02:30.778Z,19.80
2022-08-18T00:03:57.462Z,19.70
2022-08-18T00:04:57.231Z,19.70
2022-08-18T00:05:59.121Z,19.70
2022-08-18T00:07:01.088Z,19.70
2022-08-18T00:08:03.027Z,19.70
2022-08-18T00:09:07.567Z,19.70
2022-08-18T00:10:18.694Z,19.70
2022-08-18T00:11:21.283Z,19.70
2022-08-18T00:12:30.355Z,19.70
2022-08-18T00:13:32.297Z,19.70
2022-08-18T00:14:34.326Z,19.70
2022-08-18T00:15:41.522Z,19.70
2022-08-18T00:16:53.878Z,19.70
2022-08-18T00:17:55.859Z,19.70
2022-08-18T00:18:58.022Z,19.70
2022-08-18T00:20:00.323Z,19.70
2022-08-18T00:21:02.420Z,19.70
2022-08-18T00:22:04.342Z,19.70
2022-08-18T00:23:06.426Z,19.70
2022-08-18T00:24:09.533Z,19.70
2022-08-18T00:25:13.569Z,19.70
2022-08-18T00:26:15.868Z,19.60
2022-08-18T00:27:21.598Z,19.70
2022-08-18T00:28:24.443Z,19.70
2022-08-18T00:29:26.463Z,19.60
2022-08-18T00:30:28.579Z,19.60
2022-08-18T00:31:31.685Z,19.60
2022-08-18T00:32:36.966Z,19.60
2022-08-18T00:33:38.723Z,19.60
2022-08-18T00:34:40.851Z,19.60
2022-08-18T00:35:42.908Z,19.50
2022-08-18T00:36:44.800Z,19.50
2022-08-18T00:37:48.758Z,19.50
2022-08-18T00:38:50.638Z,19.50
2022-08-18T00:39:53.882Z,19.40
2022-08-18T00:40:56.889Z,19.40
2022-08-18T00:41:58.780Z,19.30
2022-08-18T00:43:03.445Z,19.30
2022-08-18T00:44:05.349Z,19.30
2022-08-18T00:45:08.036Z,19.30
2022-08-18T00:46:15.501Z,19.30
2022-08-18T00:47:17.407Z,19.30
2022-08-18T00:48:39.314Z,19.30
2022-08-18T00:49:42.955Z,19.30
2022-08-18T00:50:49.966Z,19.30
2022-08-18T00:51:52.345Z,19.30
2022-08-18T00:53:05.065Z,19.30
2022-08-18T00:54:25.925Z,19.30
2022-08-18T00:55:30.559Z,19.30
2022-08-18T00:56:39.945Z,19.30
2022-08-18T00:57:43.340Z,19.30
2022-08-18T00:58:53.513Z,19.20
2022-08-18T01:00:03.635Z,19.20
2022-08-18T01:01:08.671Z,19.10
2022-08-18T01:02:33.298Z,19.00
2022-08-18T01:03:40.170Z,19.00
2022-08-18T01:04:58.375Z,19.00
2022-08-18T01:06:15.248Z,19.00
2022-08-18T01:07:45.314Z,18.90
2022-08-18T01:08:47.619Z,18.90
2022-08-18T01:09:52.146Z,18.80
2022-08-18T01:10:55.410Z,18.70
2022-08-18T01:11:57.557Z,18.80
2022-08-18T01:12:59.737Z,18.70
2022-08-18T01:14:01.873Z,18.70
2022-08-18T01:15:04.536Z,18.70
2022-08-18T01:16:25.735Z,18.70
2022-08-18T01:17:46.270Z,18.70
2022-08-18T01:19:06.846Z,18.80
2022-08-18T01:20:32.286Z,18.80
2022-08-18T01:21:52.217Z,18.80
2022-08-18T01:23:11.945Z,18.80
2022-08-18T01:24:18.531Z,18.90
2022-08-18T01:25:41.798Z,18.90
2022-08-18T01:26:49.893Z,18.80
2022-08-18T01:27:52.559Z,18.80
2022-08-18T01:28:54.532Z,18.70
2022-08-18T01:29:57.946Z,18.70
2022-08-18T01:31:01.290Z,18.70
2022-08-18T01:33:12.507Z,18.60
2022-08-18T01:34:14.826Z,18.60
2022-08-18T01:35:18.649Z,18.60
2022-08-18T01:36:22.061Z,18.60
2022-08-18T01:37:25.513Z,18.50
2022-08-18T01:38:27.531Z,18.50
2022-08-18T01:41:11.078Z,18.50
2022-08-18T01:41:22.913Z,18.60
2022-08-18T01:42:17.446Z,18.60
2022-08-18T01:43:19.444Z,18.60
2022-08-18T01:44:21.325Z,18.60
2022-08-18T01:45:23.261Z,18.60
2022-08-18T01:46:25.433Z,18.60
2022-08-18T01:47:28.847Z,18.60
2022-08-18T01:48:36.995Z,18.50
2022-08-18T01:49:43.554Z,18.60
2022-08-18T01:50:45.896Z,18.50
2022-08-18T01:51:49.098Z,18.50
2022-08-18T01:52:53.629Z,18.50
2022-08-18T01:53:55.999Z,18.40
2022-08-18T01:55:01.278Z,18.40
2022-08-18T01:56:05.417Z,18.40
2022-08-18T01:57:07.182Z,18.40
2022-08-18T01:58:08.965Z,18.40
2022-08-18T01:59:14.483Z,18.40
2022-08-18T02:00:18.589Z,18.50
2022-08-18T02:01:22.178Z,18.50
2022-08-18T02:02:27.922Z,18.60
2022-08-18T02:03:37.240Z,18.60
2022-08-18T02:04:39.570Z,18.60
2022-08-18T02:05:46.491Z,18.50
2022-08-18T02:06:50.225Z,18.60
2022-08-18T02:07:54.094Z,18.60
2022-08-18T02:08:56.344Z,18.50
2022-08-18T02:09:59.343Z,18.50
2022-08-18T02:11:01.746Z,18.50
2022-08-18T02:12:05.725Z,18.50
2022-08-18T02:13:08.367Z,18.40
2022-08-18T02:14:10.243Z,18.40
2022-08-18T02:15:13.164Z,18.40
2022-08-18T02:16:15.214Z,18.30
2022-08-18T02:17:16.947Z,18.20
2022-08-18T02:18:26.006Z,18.20
2022-08-18T02:19:47.468Z,18.20
2022-08-18T02:20:49.674Z,18.10
2022-08-18T02:22:00.146Z,18.10
2022-08-18T02:23:02.820Z,18.10
2022-08-18T02:24:05.114Z,18.10
2022-08-18T02:25:07.726Z,18.10
2022-08-18T02:26:12.664Z,18.20
2022-08-18T02:27:15.832Z,18.20
2022-08-18T02:28:17.755Z,18.20
2022-08-18T02:29:19.651Z,18.20
2022-08-18T02:30:21.608Z,18.20
2022-08-18T02:31:25.418Z,18.20
2022-08-18T02:32:29.416Z,18.30
2022-08-18T02:33:31.542Z,18.30
2022-08-18T02:34:33.563Z,18.40
2022-08-18T02:35:36.554Z,18.40
2022-08-18T02:36:38.486Z,18.40
2022-08-18T02:37:42.440Z,18.40
2022-08-18T02:38:44.479Z,18.30
2022-08-18T02:39:57.634Z,18.30
2022-08-18T02:41:01.667Z,18.20
2022-08-18T02:42:05.780Z,18.20
2022-08-18T02:43:09.488Z,18.20
2022-08-18T02:44:13.105Z,18.20
2022-08-18T02:45:15.197Z,18.20
2022-08-18T02:46:17.135Z,18.20
2022-08-18T02:47:22.370Z,18.20
2022-08-18T02:48:30.247Z,18.20
2022-08-18T02:49:32.086Z,18.20
2022-08-18T02:50:34.322Z,18.20
2022-08-18T02:51:36.468Z,18.30
2022-08-18T02:52:40.483Z,18.30
2022-08-18T02:53:49.467Z,18.30
2022-08-18T02:54:52.851Z,18.40
2022-08-18T02:55:55.729Z,18.30
2022-08-18T02:56:58.282Z,18.30
2022-08-18T02:58:03.449Z,18.40
2022-08-18T02:59:07.990Z,18.40
2022-08-18T03:00:13.128Z,18.40
2022-08-18T03:01:15.553Z,18.50
2022-08-18T03:02:17.641Z,18.50
2022-08-18T03:03:19.566Z,18.50
2022-08-18T03:04:29.703Z,18.50
2022-08-18T03:05:32.045Z,18.50
2022-08-18T03:06:37.353Z,18.50
2022-08-18T03:07:40.026Z,18.50
2022-08-18T03:08:43.147Z,18.50
2022-08-18T03:09:45.077Z,18.50
2022-08-18T03:10:52.566Z,18.50
2022-08-18T03:11:54.959Z,18.50
2022-08-18T03:12:56.926Z,18.50
2022-08-18T03:13:59.719Z,18.40
2022-08-18T03:15:02.273Z,18.40
2022-08-18T03:16:04.817Z,18.40
2022-08-18T03:17:08.661Z,18.50
2022-08-18T03:18:12.533Z,18.50
2022-08-18T03:19:16.429Z,18.50
2022-08-18T03:20:18.347Z,18.50
2022-08-18T03:21:35.870Z,18.50
2022-08-18T03:22:38.954Z,18.50
2022-08-18T03:23:41.999Z,18.60
2022-08-18T03:24:44.268Z,18.50
2022-08-18T03:25:49.284Z,18.60
2022-08-18T03:26:53.015Z,18.60
2022-08-18T03:27:54.904Z,18.60
2022-08-18T03:28:58.042Z,18.60
2022-08-18T03:30:00.557Z,18.60
2022-08-18T03:31:02.466Z,18.60
2022-08-18T03:32:07.545Z,18.60
2022-08-18T03:33:10.719Z,18.60
2022-08-18T03:34:13.240Z,18.60
2022-08-18T03:35:15.066Z,18.60
2022-08-18T03:36:21.934Z,18.60
2022-08-18T03:37:23.756Z,18.60
2022-08-18T03:38:25.681Z,18.60
2022-08-18T03:39:28.502Z,18.60
2022-08-18T03:40:30.753Z,18.60
2022-08-18T03:41:59.232Z,18.70
2022-08-18T03:42:55.390Z,18.70
2022-08-18T03:43:57.211Z,18.70
2022-08-18T03:44:59.034Z,18.80
2022-08-18T03:46:06.753Z,18.80
2022-08-18T03:47:10.341Z,18.80
2022-08-18T03:48:12.514Z,18.80
2022-08-18T03:49:14.550Z,18.80
2022-08-18T03:50:16.301Z,18.80
2022-08-18T03:51:22.218Z,18.80
2022-08-18T03:52:24.115Z,18.80
2022-08-18T03:53:26.076Z,18.70
2022-08-18T03:54:28.711Z,18.70
2022-08-18T03:55:30.694Z,18.70
2022-08-18T03:56:35.580Z,18.70
2022-08-18T03:57:44.064Z,18.70
2022-08-18T03:59:01.530Z,18.70
2022-08-18T04:00:04.871Z,18.70
2022-08-18T04:01:06.761Z,18.60
2022-08-18T04:02:08.656Z,18.60
2022-08-18T04:03:11.561Z,18.60
2022-08-18T04:04:17.307Z,18.70
2022-08-18T04:05:19.206Z,18.80
2022-08-18T04:06:30.193Z,18.80
2022-08-18T04:07:32.183Z,18.80
2022-08-18T04:08:34.165Z,18.90
2022-08-18T04:09:38.217Z,18.90
2022-08-18T04:10:40.531Z,18.90
2022-08-18T04:11:44.385Z,19.00
2022-08-18T04:12:46.377Z,19.00
2022-08-18T04:13:48.194Z,19.00
2022-08-18T04:14:50.679Z,19.10
2022-08-18T04:15:52.623Z,19.10
2022-08-18T04:16:54.379Z,19.20
2022-08-18T04:18:03.983Z,19.20
2022-08-18T04:19:07.221Z,19.30
2022-08-18T04:20:10.846Z,19.40
2022-08-18T04:21:14.062Z,19.40
2022-08-18T04:22:17.557Z,19.40
2022-08-18T04:23:21.440Z,19.40
2022-08-18T04:24:23.332Z,19.40
2022-08-18T04:25:30.744Z,19.40
2022-08-18T04:26:38.104Z,19.40
2022-08-18T04:27:42.905Z,19.40
2022-08-18T04:28:44.996Z,19.40
2022-08-18T04:29:48.086Z,19.50
2022-08-18T04:30:49.984Z,19.50
2022-08-18T04:31:52.549Z,19.60
2022-08-18T04:32:54.609Z,19.50
2022-08-18T04:33:58.610Z,19.60
2022-08-18T04:35:02.890Z,19.60
2022-08-18T04:36:20.727Z,19.70
2022-08-18T04:37:23.064Z,19.70
2022-08-18T04:38:25.002Z,19.70
2022-08-18T04:39:27.256Z,19.70
2022-08-18T04:40:29.987Z,19.80
2022-08-18T04:41:32.259Z,19.80
2022-08-18T04:42:34.162Z,19.90
2022-08-18T04:43:42.317Z,19.90
2022-08-18T04:44:44.225Z,20.00
2022-08-18T04:45:46.458Z,20.10
2022-08-18T04:46:54.413Z,20.10
2022-08-18T04:47:58.180Z,20.20
2022-08-18T04:49:00.416Z,20.20
2022-08-18T04:50:03.556Z,20.20
2022-08-18T04:51:11.713Z,20.30
2022-08-18T04:52:40.354Z,20.30
2022-08-18T04:53:47.815Z,20.40
2022-08-18T04:54:50.013Z,20.40
2022-08-18T04:55:54.662Z,20.40
2022-08-18T04:56:56.709Z,20.50
2022-08-18T04:57:59.633Z,20.50
2022-08-18T04:59:08.037Z,20.60
2022-08-18T05:00:13.883Z,20.60
2022-08-18T05:01:17.859Z,20.60
2022-08-18T05:02:21.528Z,20.70
2022-08-18T05:03:26.676Z,20.80
2022-08-18T05:04:29.458Z,20.80
2022-08-18T05:05:31.357Z,20.80
2022-08-18T05:06:33.450Z,20.90
2022-08-18T05:07:35.181Z,21.00
2022-08-18T05:08:37.118Z,21.00
2022-08-18T05:09:41.407Z,21.00
2022-08-18T05:10:43.680Z,21.10
2022-08-18T05:11:45.609Z,21.10
2022-08-18T05:12:48.450Z,21.10
2022-08-18T05:13:52.361Z,21.20
2022-08-18T05:14:57.275Z,21.20
2022-08-18T05:16:16.873Z,21.20
2022-08-18T05:17:21.516Z,21.30
2022-08-18T05:18:24.890Z,21.30
2022-08-18T05:19:31.452Z,21.30
2022-08-18T05:20:33.629Z,21.40
2022-08-18T05:21:37.235Z,21.40
2022-08-18T05:22:43.362Z,21.50
2022-08-18T05:23:47.929Z,21.50
2022-08-18T05:24:49.794Z,21.60
2022-08-18T05:25:57.953Z,21.60
2022-08-18T05:26:59.908Z,21.60
2022-08-18T05:28:01.768Z,21.70
2022-08-18T05:29:18.641Z,21.70
2022-08-18T05:30:21.575Z,21.70
2022-08-18T05:31:25.885Z,21.80
2022-08-18T05:32:48.292Z,21.80
2022-08-18T05:33:53.837Z,21.90
2022-08-18T05:34:57.478Z,21.90
2022-08-18T05:36:05.908Z,21.90
2022-08-18T05:37:27.893Z,22.00
2022-08-18T05:38:55.029Z,22.10
2022-08-18T05:40:01.417Z,22.00
2022-08-18T05:41:26.546Z,22.10
2022-08-18T05:42:35.321Z,22.20
2022-08-18T05:43:51.289Z,22.20
2022-08-18T05:44:55.958Z,22.20
2022-08-18T05:45:59.728Z,22.30
2022-08-18T05:47:07.116Z,22.40
2022-08-18T05:48:09.296Z,22.40
2022-08-18T05:49:12.976Z,22.40
2022-08-18T05:50:18.973Z,22.50
2022-08-18T05:51:29.521Z,22.60
2022-08-18T05:53:03.098Z,22.70
2022-08-18T05:54:26.933Z,22.80
2022-08-18T05:55:58.183Z,22.80
2022-08-18T05:57:10.335Z,22.90
2022-08-18T05:58:19.184Z,23.00
2022-08-18T05:59:28.890Z,23.00
2022-08-18T06:00:31.713Z,23.10
2022-08-18T06:01:42.680Z,23.10
2022-08-18T06:03:02.386Z,23.10
2022-08-18T06:04:29.985Z,23.20
2022-08-18T06:05:57.593Z,23.20
2022-08-18T06:07:05.164Z,23.30
2022-08-18T06:08:13.341Z,23.30
2022-08-18T06:09:40.153Z,23.30
2022-08-18T06:10:47.261Z,23.30
2022-08-18T06:11:50.084Z,23.40
2022-08-18T06:12:55.304Z,23.40
2022-08-18T06:13:59.456Z,23.50
2022-08-18T06:15:17.057Z,23.50
2022-08-18T06:16:44.531Z,23.60
2022-08-18T06:18:29.649Z,23.60
2022-08-18T06:19:43.608Z,23.70
2022-08-18T06:20:57.597Z,23.70
2022-08-18T06:22:07.848Z,23.80
2022-08-18T06:24:06.458Z,23.80
2022-08-18T06:25:21.621Z,23.80
2022-08-18T06:26:40.483Z,23.80
2022-08-18T06:27:58.836Z,23.80
2022-08-18T06:29:21.637Z,23.90
2022-08-18T06:30:33.523Z,23.90
2022-08-18T06:32:01.341Z,23.90
2022-08-18T06:33:14.396Z,24.00
2022-08-18T06:34:28.988Z,23.90
2022-08-18T06:35:50.490Z,24.00
2022-08-18T06:37:10.955Z,24.00
2022-08-18T06:38:36.888Z,24.10
2022-08-18T06:39:49.078Z,24.10
2022-08-18T06:41:40.993Z,24.20
2022-08-18T06:42:39.943Z,24.30
2022-08-18T06:44:04.558Z,24.30
2022-08-18T06:45:13.021Z,24.40
2022-08-18T06:46:28.340Z,24.40
2022-08-18T06:47:41.213Z,24.40
2022-08-18T06:48:56.712Z,24.50
2022-08-18T06:50:23.263Z,24.50
2022-08-18T06:51:28.406Z,24.60
2022-08-18T06:52:38.446Z,24.60
2022-08-18T06:54:21.461Z,24.70
2022-08-18T06:55:42.352Z,24.70
2022-08-18T06:56:44.517Z,24.80
2022-08-18T06:58:08.789Z,24.80
2022-08-18T06:59:30.294Z,24.90
2022-08-18T07:00:34.962Z,24.90
2022-08-18T07:01:38.863Z,24.90
2022-08-18T07:02:55.101Z,25.00
2022-08-18T07:03:57.007Z,25.00
2022-08-18T07:05:03.281Z,25.10
2022-08-18T07:06:21.233Z,25.20
2022-08-18T07:07:41.390Z,25.20
2022-08-18T07:08:44.988Z,25.40
2022-08-18T07:09:49.140Z,25.40
2022-08-18T07:10:52.566Z,25.40
2022-08-18T07:12:09.111Z,25.50
2022-08-18T07:13:13.340Z,25.50
2022-08-18T07:14:22.234Z,25.50
2022-08-18T07:15:25.186Z,25.60
2022-08-18T07:16:56.519Z,25.60
2022-08-18T07:18:05.920Z,25.60
2022-08-18T07:19:08.477Z,25.60
2022-08-18T07:20:47.452Z,25.50
2022-08-18T07:22:09.926Z,25.60
2022-08-18T07:23:27.689Z,25.50
2022-08-18T07:24:46.051Z,25.50
2022-08-18T07:25:51.100Z,25.60
2022-08-18T07:27:03.485Z,25.60
2022-08-18T07:28:06.012Z,25.60
2022-08-18T07:29:15.820Z,25.70
2022-08-18T07:30:19.573Z,25.70
2022-08-18T07:31:50.231Z,25.80
2022-08-18T07:32:59.666Z,25.80
2022-08-18T07:34:15.769Z,25.80
2022-08-18T07:35:25.174Z,25.90
2022-08-18T07:36:47.724Z,25.90
2022-08-18T07:37:58.150Z,26.00
2022-08-18T07:39:14.625Z,26.00
2022-08-18T07:40:35.459Z,26.10
2022-08-18T07:41:59.843Z,26.20
2022-08-18T07:43:11.138Z,26.20
2022-08-18T07:44:24.044Z,26.30
2022-08-18T07:45:30.289Z,26.30
2022-08-18T07:46:45.056Z,26.30
2022-08-18T07:48:15.679Z,26.40
2022-08-18T07:49:26.503Z,26.40
2022-08-18T07:50:58.755Z,26.40
2022-08-18T07:52:35.839Z,26.40
2022-08-18T07:53:37.435Z,26.40
2022-08-18T07:54:49.816Z,26.40
2022-08-18T07:55:58.382Z,26.50
2022-08-18T07:57:08.085Z,26.50
2022-08-18T07:58:26.650Z,26.60
2022-08-18T07:59:43.228Z,26.70
2022-08-18T08:00:59.240Z,26.70
2022-08-18T08:02:29.781Z,26.70
2022-08-18T08:03:58.472Z,26.70
2022-08-18T08:05:18.682Z,26.70
2022-08-18T08:06:45.045Z,26.80
2022-08-18T08:08:25.918Z,26.80
2022-08-18T08:10:01.529Z,26.90
2022-08-18T08:11:24.296Z,26.90
2022-08-18T08:13:06.047Z,26.90
2022-08-18T08:14:38.706Z,26.90
2022-08-18T08:15:43.432Z,26.90
2022-08-18T08:17:04.278Z,26.90
2022-08-18T08:18:25.009Z,26.90
2022-08-18T08:20:05.968Z,26.90
2022-08-18T08:21:16.399Z,27.00
2022-08-18T08:22:29.597Z,27.00
2022-08-18T08:23:48.217Z,27.00
2022-08-18T08:25:17.475Z,27.00
2022-08-18T08:26:56.392Z,27.00
2022-08-18T08:28:16.935Z,27.00
2022-08-18T08:29:33.394Z,27.00
2022-08-18T08:31:33.223Z,27.00
2022-08-18T08:32:34.409Z,27.10
2022-08-18T08:33:52.079Z,27.10
2022-08-18T08:35:49.138Z,27.20
2022-08-18T08:36:42.586Z,27.40
2022-08-18T08:37:58.267Z,27.40
2022-08-18T08:39:22.986Z,27.50
2022-08-18T08:40:38.457Z,27.60
2022-08-18T08:41:53.233Z,27.70
2022-08-18T08:43:08.904Z,27.80
2022-08-18T08:44:13.549Z,27.80
2022-08-18T08:45:38.101Z,27.80
2022-08-18T08:47:03.183Z,27.90
2022-08-18T08:48:11.177Z,28.00
2022-08-18T08:49:27.583Z,28.00
2022-08-18T08:50:45.292Z,28.10
2022-08-18T08:51:58.113Z,28.20
2022-08-18T08:53:12.619Z,28.40
2022-08-18T08:54:23.481Z,28.40
2022-08-18T08:55:30.534Z,28.30
2022-08-18T08:56:39.513Z,28.30
2022-08-18T08:57:54.058Z,28.30
2022-08-18T08:59:09.801Z,28.30
2022-08-18T09:00:15.331Z,28.30
2022-08-18T09:01:41.885Z,28.30
2022-08-18T09:03:39.416Z,28.30
2022-08-18T09:05:06.828Z,28.30
2022-08-18T09:06:41.860Z,28.20
2022-08-18T09:08:14.228Z,28.10
2022-08-18T09:10:07.970Z,28.10
2022-08-18T09:11:12.443Z,28.10
2022-08-18T09:12:44.939Z,28.00
2022-08-18T09:14:24.084Z,28.10
2022-08-18T09:15:54.680Z,28.20
2022-08-18T09:17:34.569Z,28.20
2022-08-18T09:18:52.208Z,28.30
2022-08-18T09:20:12.414Z,28.30
2022-08-18T09:21:37.971Z,28.30
2022-08-18T09:23:00.195Z,28.30
2022-08-18T09:24:29.266Z,28.30
2022-08-18T09:25:40.051Z,28.30
2022-08-18T09:26:49.722Z,28.30
2022-08-18T09:28:12.463Z,28.40
2022-08-18T09:29:26.261Z,28.60
2022-08-18T09:31:09.306Z,28.60
2022-08-18T09:32:20.275Z,28.70
2022-08-18T09:33:34.853Z,28.80
2022-08-18T09:35:05.394Z,28.90
2022-08-18T09:36:19.909Z,29.00
2022-08-18T09:37:28.050Z,29.10
2022-08-18T09:38:50.524Z,29.10
2022-08-18T09:40:51.360Z,29.10
2022-08-18T09:41:53.675Z,29.20
2022-08-18T09:43:20.294Z,29.20
2022-08-18T09:44:46.773Z,29.20
2022-08-18T09:45:57.793Z,29.30
2022-08-18T09:47:00.309Z,29.30
2022-08-18T09:48:28.318Z,29.30
2022-08-18T09:49:30.564Z,29.40
2022-08-18T09:50:50.917Z,29.40
2022-08-18T09:51:54.280Z,29.40
2022-08-18T09:53:19.647Z,29.40
2022-08-18T09:54:32.780Z,29.40
2022-08-18T09:55:42.635Z,29.30
2022-08-18T09:57:07.679Z,29.40
2022-08-18T09:58:22.949Z,29.40
2022-08-18T09:59:34.533Z,29.40
2022-08-18T10:00:37.009Z,29.30
2022-08-18T10:01:42.249Z,29.40
2022-08-18T10:03:02.335Z,29.40
2022-08-18T10:04:32.789Z,29.50
2022-08-18T10:05:35.519Z,29.50
2022-08-18T10:06:38.888Z,29.50
2022-08-18T10:08:07.476Z,29.50
2022-08-18T10:09:44.064Z,29.50
2022-08-18T10:11:08.600Z,29.50
2022-08-18T10:14:12.368Z,29.50
2022-08-18T10:15:27.013Z,29.60
2022-08-18T10:17:24.354Z,29.60
2022-08-18T10:18:56.806Z,29.70
2022-08-18T10:20:09.349Z,29.80
2022-08-18T10:21:53.725Z,29.80
2022-08-18T10:22:57.456Z,29.90
2022-08-18T10:24:32.043Z,29.90
2022-08-18T10:25:48.804Z,30.00
2022-08-18T10:26:54.096Z,30.00
2022-08-18T10:27:57.370Z,30.10
2022-08-18T10:29:04.162Z,30.10
2022-08-18T10:30:34.565Z,30.20
2022-08-18T10:31:55.970Z,30.40
2022-08-18T10:33:07.445Z,30.40
2022-08-18T10:34:51.514Z,30.50
2022-08-18T10:36:03.121Z,30.60
2022-08-18T10:37:13.198Z,30.70
2022-08-18T10:38:25.482Z,30.70
2022-08-18T10:39:41.225Z,30.70
2022-08-18T10:40:52.878Z,30.80
2022-08-18T10:42:11.110Z,30.80
2022-08-18T10:43:45.692Z,30.80
2022-08-18T10:45:36.682Z,30.70
2022-08-18T10:46:42.557Z,30.80
2022-08-18T10:48:11.937Z,30.90
2022-08-18T10:49:26.506Z,30.90
2022-08-18T10:50:32.804Z,31.00
2022-08-18T10:52:01.363Z,31.10
2022-08-18T10:53:40.242Z,31.30
2022-08-18T10:55:10.346Z,31.50
2022-08-18T10:56:33.516Z,32.40
2022-08-18T10:57:38.228Z,33.90
2022-08-18T10:58:42.589Z,35.00
2022-08-18T11:00:01.560Z,35.50
2022-08-18T11:01:30.896Z,36.20
2022-08-18T11:03:29.891Z,37.40
2022-08-18T11:04:41.556Z,37.90
2022-08-18T11:05:44.660Z,38.00
2022-08-18T11:06:51.140Z,38.50
2022-08-18T11:08:02.059Z,38.90
2022-08-18T11:09:04.562Z,39.30
2022-08-18T11:10:32.216Z,39.80
2022-08-18T11:11:41.075Z,40.40
2022-08-18T11:13:24.346Z,40.60
2022-08-18T11:14:42.718Z,40.60
2022-08-18T11:16:03.389Z,40.70
2022-08-18T11:17:36.167Z,40.70
2022-08-18T11:18:49.810Z,40.60
2022-08-18T11:19:55.723Z,39.90
2022-08-18T11:21:30.807Z,39.40
2022-08-18T11:22:35.654Z,39.00
2022-08-18T11:23:37.685Z,39.00
2022-08-18T11:24:44.910Z,39.20
2022-08-18T11:25:48.559Z,39.60
2022-08-18T11:26:59.900Z,39.90
2022-08-18T11:28:02.893Z,40.20
2022-08-18T11:29:24.014Z,40.30
2022-08-18T11:30:37.039Z,40.50
2022-08-18T11:31:39.185Z,40.40
2022-08-18T11:32:55.163Z,40.20
2022-08-18T11:33:57.415Z,40.40
2022-08-18T11:34:59.969Z,40.50
2022-08-18T11:36:02.112Z,40.70
2022-08-18T11:37:19.518Z,41.00
2022-08-18T11:38:24.541Z,41.30
2022-08-18T11:39:38.151Z,41.70
2022-08-18T11:42:15.910Z,41.90
2022-08-18T11:43:41.539Z,41.80
2022-08-18T11:44:45.430Z,41.70
2022-08-18T11:45:58.450Z,42.10
2022-08-18T11:47:23.511Z,42.60
2022-08-18T11:48:37.831Z,43.00
2022-08-18T11:50:13.884Z,43.20
2022-08-18T11:52:54.577Z,43.10
2022-08-18T11:54:21.964Z,42.70
2022-08-18T11:55:33.214Z,42.40
2022-08-18T11:56:38.471Z,42.60
2022-08-18T11:57:59.610Z,42.90
2022-08-18T11:59:53.247Z,43.20
2022-08-18T12:00:53.680Z,43.30
2022-08-18T12:01:56.997Z,43.30
2022-08-18T12:03:09.919Z,43.60
2022-08-18T12:05:56.650Z,44.70
2022-08-18T12:07:04.427Z,45.20
2022-08-18T12:08:50.651Z,45.70
2022-08-18T12:10:17.386Z,46.20
2022-08-18T12:11:32.748Z,46.40
2022-08-18T12:12:44.385Z,44.50
2022-08-18T12:13:56.759Z,43.90
2022-08-18T12:15:10.468Z,44.20
2022-08-18T12:16:40.195Z,44.30
2022-08-18T12:17:52.404Z,43.40
2022-08-18T12:18:55.144Z,42.50
2022-08-18T12:19:58.108Z,42.00
2022-08-18T12:21:02.857Z,41.90
2022-08-18T12:22:17.895Z,41.70
2022-08-18T12:23:19.834Z,41.40
2022-08-18T12:24:36.711Z,41.40
2022-08-18T12:25:41.210Z,41.30
2022-08-18T12:26:47.589Z,41.20
2022-08-18T12:27:49.623Z,40.80
2022-08-18T12:28:52.563Z,40.40
2022-08-18T12:29:57.654Z,40.00
2022-08-18T12:30:59.958Z,39.60
2022-08-18T12:32:01.847Z,39.30
2022-08-18T12:33:10.293Z,39.30
2022-08-18T12:34:14.248Z,39.20
2022-08-18T12:35:16.886Z,39.00
2022-08-18T12:36:24.738Z,39.00
2022-08-18T12:37:58.143Z,39.00
2022-08-18T12:38:56.128Z,39.00
2022-08-18T12:39:59.756Z,38.70
2022-08-18T12:41:01.842Z,38.80
2022-08-18T12:42:05.875Z,38.90
2022-08-18T12:43:08.441Z,38.80
2022-08-18T12:44:13.351Z,38.70
2022-08-18T12:45:15.918Z,38.60
2022-08-18T12:46:18.295Z,38.80
2022-08-18T12:47:24.117Z,39.30
2022-08-18T12:48:28.261Z,40.00
2022-08-18T12:49:31.413Z,40.50
2022-08-18T12:50:39.200Z,40.80
2022-08-18T12:51:54.787Z,41.20
2022-08-18T12:52:57.665Z,41.80
2022-08-18T12:54:00.272Z,42.50
2022-08-18T12:55:03.169Z,43.00
2022-08-18T12:56:08.719Z,43.10
2022-08-18T12:57:27.702Z,43.30
2022-08-18T12:58:42.988Z,43.80
2022-08-18T12:59:45.949Z,44.00
2022-08-18T13:00:48.743Z,44.20
2022-08-18T13:01:58.558Z,44.30
2022-08-18T13:03:01.702Z,44.30
2022-08-18T13:04:12.575Z,43.70
2022-08-18T13:05:30.046Z,43.00
2022-08-18T13:06:35.933Z,41.80
2022-08-18T13:07:37.881Z,40.90
2022-08-18T13:08:50.310Z,40.20
2022-08-18T13:09:54.419Z,39.60
2022-08-18T13:10:58.180Z,39.00
2022-08-18T13:12:00.399Z,38.50
2022-08-18T13:13:02.279Z,38.10
2022-08-18T13:14:08.922Z,37.90
2022-08-18T13:15:11.176Z,37.70
2022-08-18T13:16:16.390Z,37.40
2022-08-18T13:17:34.328Z,37.40
2022-08-18T13:18:37.787Z,37.40
2022-08-18T13:19:39.841Z,37.30
2022-08-18T13:20:45.060Z,37.20
2022-08-18T13:21:47.550Z,37.10
2022-08-18T13:22:51.673Z,37.10
2022-08-18T13:23:55.710Z,37.30
2022-08-18T13:24:57.599Z,37.60
2022-08-18T13:26:03.217Z,38.20
2022-08-18T13:27:18.471Z,38.90
2022-08-18T13:28:25.677Z,39.70
2022-08-18T13:29:32.565Z,40.40
2022-08-18T13:30:35.692Z,40.90
2022-08-18T13:31:38.377Z,41.20
2022-08-18T13:32:47.257Z,41.40
2022-08-18T13:34:03.670Z,41.90
2022-08-18T13:35:13.166Z,42.30
2022-08-18T13:36:15.592Z,42.80
2022-08-18T13:37:18.553Z,43.20
2022-08-18T13:38:27.273Z,43.10
2022-08-18T13:39:34.305Z,43.00
2022-08-18T13:40:38.258Z,42.70
2022-08-18T13:41:52.778Z,42.30
2022-08-18T13:42:54.759Z,41.90
2022-08-18T13:43:59.046Z,41.60
2022-08-18T13:45:22.762Z,41.00
2022-08-18T13:46:29.778Z,40.30
2022-08-18T13:47:38.242Z,39.60
2022-08-18T13:48:41.560Z,39.10
2022-08-18T13:49:43.776Z,38.90
2022-08-18T13:51:03.232Z,38.70
2022-08-18T13:52:12.278Z,38.70
2022-08-18T13:53:31.476Z,38.80
2022-08-18T13:54:36.191Z,38.60
2022-08-18T13:55:41.745Z,38.10
2022-08-18T13:56:52.156Z,37.50
2022-08-18T13:57:54.788Z,37.10
2022-08-18T13:58:56.933Z,36.70
2022-08-18T13:59:58.770Z,36.30
2022-08-18T14:01:37.267Z,36.20
2022-08-18T14:02:28.072Z,36.40
2022-08-18T14:03:46.674Z,36.40
2022-08-18T14:04:49.569Z,36.40
2022-08-18T14:06:01.087Z,36.50
2022-08-18T14:07:10.023Z,36.50
2022-08-18T14:08:19.573Z,36.60
2022-08-18T14:09:27.729Z,36.70
2022-08-18T14:10:38.690Z,36.80
2022-08-18T14:11:41.829Z,37.10
2022-08-18T14:12:44.854Z,37.30
2022-08-18T14:13:49.089Z,37.40
2022-08-18T14:14:55.510Z,37.40
2022-08-18T14:15:59.437Z,37.10
2022-08-18T14:17:01.703Z,36.80
2022-08-18T14:18:06.031Z,36.50
2022-08-18T14:19:28.438Z,36.40
2022-08-18T14:20:49.453Z,36.50
2022-08-18T14:22:13.375Z,36.50
2022-08-18T14:23:34.614Z,36.30
2022-08-18T14:24:59.541Z,36.10
2022-08-18T14:26:20.893Z,36.10
2022-08-18T14:27:34.699Z,36.10
2022-08-18T14:28:38.444Z,36.10
2022-08-18T14:29:47.467Z,36.00
2022-08-18T14:30:54.151Z,35.80
2022-08-18T14:31:57.105Z,35.70
2022-08-18T14:32:59.938Z,35.50
2022-08-18T14:34:04.077Z,35.50
2022-08-18T14:36:04.681Z,35.30
2022-08-18T14:36:30.722Z,35.20
2022-08-18T14:37:33.938Z,35.00
2022-08-18T14:38:37.025Z,34.90
2022-08-18T14:39:40.644Z,34.80
2022-08-18T14:40:51.194Z,34.60
2022-08-18T14:41:55.996Z,34.50
2022-08-18T14:42:58.750Z,34.40
2022-08-18T14:44:12.885Z,34.20
2022-08-18T14:45:27.801Z,34.20
2022-08-18T14:46:36.311Z,34.20
2022-08-18T14:47:42.973Z,34.00
2022-08-18T14:48:45.521Z,33.90
2022-08-18T14:49:49.618Z,33.80
2022-08-18T14:50:54.607Z,33.60
2022-08-18T14:51:58.059Z,33.60
2022-08-18T14:52:59.960Z,33.50
2022-08-18T14:54:02.949Z,33.30
2022-08-18T14:55:05.278Z,33.20
2022-08-18T14:56:11.776Z,33.10
2022-08-18T14:57:13.912Z,33.00
2022-08-18T14:58:16.662Z,33.00
2022-08-18T14:59:20.692Z,32.90
2022-08-18T15:00:22.899Z,32.80
2022-08-18T15:01:26.555Z,32.70
2022-08-18T15:02:28.724Z,32.60
2022-08-18T15:03:31.885Z,32.60
2022-08-18T15:04:38.497Z,32.50
2022-08-18T15:05:56.310Z,32.50
2022-08-18T15:06:58.173Z,32.40
2022-08-18T15:08:04.383Z,32.40
2022-08-18T15:09:06.717Z,32.30
2022-08-18T15:10:14.405Z,32.30
2022-08-18T15:11:17.915Z,32.20
2022-08-18T15:12:25.697Z,32.10
2022-08-18T15:13:27.738Z,32.10
2022-08-18T15:14:33.655Z,32.10
2022-08-18T15:15:42.287Z,32.10
2022-08-18T15:16:53.205Z,32.10